createdAt,value
2023-03-13T08:03:24.865Z,16.55
2023-03-13T08:03:52.253Z,14.77
2023-03-13T08:04:15.934Z,18.15
2023-03-13T08:04:38.778Z,20.38
2023-03-13T08:05:01.449Z,22.20
2023-03-13T08:05:24.692Z,17.67
2023-03-13T08:05:47.373Z,18.38
2023-03-13T08:06:11.000Z,17.00
2023-03-13T08:06:35.695Z,18.77
2023-03-13T08:06:58.793Z,17.40
2023-03-13T08:07:21.520Z,14.80
2023-03-13T08:07:45.075Z,13.93
2023-03-13T08:08:07.848Z,16.67
2023-03-13T08:08:33.778Z,19.83
2023-03-13T08:08:57.938Z,18.75
2023-03-13T08:09:20.843Z,17.65
2023-03-13T08:09:46.092Z,18.20
2023-03-13T08:10:12.107Z,18.33
2023-03-13T08:10:34.717Z,18.35
2023-03-13T08:11:01.348Z,17.25
2023-03-13T08:11:25.331Z,16.88
2023-03-13T08:11:49.314Z,15.98
2023-03-13T08:12:11.978Z,16.10
2023-03-13T08:12:34.720Z,17.92
2023-03-13T08:12:57.447Z,17.42
2023-03-13T08:13:22.726Z,18.27
2023-03-13T08:13:45.454Z,18.65
2023-03-13T08:14:08.548Z,22.83
2023-03-13T08:14:31.345Z,21.33
2023-03-13T08:14:54.696Z,22.17
2023-03-13T08:15:21.751Z,31.23
2023-03-13T08:15:44.473Z,30.80
2023-03-13T08:16:08.492Z,31.10
2023-03-13T08:16:34.420Z,27.17
2023-03-13T08:16:57.377Z,26.52
2023-03-13T08:17:20.233Z,26.98
2023-03-13T08:17:42.895Z,22.73
2023-03-13T08:18:05.774Z,26.48
2023-03-13T08:18:28.451Z,22.05
2023-03-13T08:18:53.444Z,19.17
2023-03-13T08:19:16.173Z,18.77
2023-03-13T08:19:39.120Z,22.52
2023-03-13T08:20:01.820Z,22.30
2023-03-13T08:20:24.641Z,23.27
2023-03-13T08:20:47.343Z,23.33
2023-03-13T08:21:11.388Z,18.17
2023-03-13T08:21:34.715Z,21.60
2023-03-13T08:21:57.523Z,17.98
2023-03-13T08:22:20.259Z,16.63
2023-03-13T08:22:43.063Z,15.80
2023-03-13T08:23:05.784Z,16.60
2023-03-13T08:23:28.537Z,15.07
2023-03-13T08:23:53.296Z,14.63
2023-03-13T08:24:16.031Z,17.90
2023-03-13T08:24:38.771Z,17.25
2023-03-13T08:25:01.523Z,15.18
2023-03-13T08:25:24.248Z,15.55
2023-03-13T08:25:47.039Z,16.17
2023-03-13T08:26:11.192Z,16.25
2023-03-13T08:26:34.477Z,18.05
2023-03-13T08:26:59.584Z,16.42
2023-03-13T08:27:22.192Z,15.38
2023-03-13T08:27:44.955Z,15.15
2023-03-13T08:28:07.667Z,13.38
2023-03-13T08:28:30.481Z,16.42
2023-03-13T08:28:54.184Z,17.25
2023-03-13T08:29:17.061Z,14.70
2023-03-13T08:29:39.728Z,14.15
2023-03-13T08:30:05.538Z,12.18
2023-03-13T08:30:28.341Z,16.10
2023-03-13T08:30:53.826Z,15.68
2023-03-13T08:31:17.651Z,14.90
2023-03-13T08:31:43.563Z,15.88
2023-03-13T08:32:06.587Z,18.15
2023-03-13T08:32:29.361Z,15.15
2023-03-13T08:32:52.174Z,14.27
2023-03-13T08:33:15.565Z,16.15
2023-03-13T08:33:40.563Z,13.63
2023-03-13T08:34:04.878Z,12.68
2023-03-13T08:34:27.677Z,15.40
2023-03-13T08:34:50.499Z,14.85
2023-03-13T08:35:13.203Z,12.98
2023-03-13T08:35:35.960Z,13.18
2023-03-13T08:35:58.925Z,16.95
2023-03-13T08:36:25.086Z,14.80
2023-03-13T08:36:47.974Z,15.23
2023-03-13T08:37:10.720Z,14.45
2023-03-13T08:37:33.441Z,16.23
2023-03-13T08:37:56.378Z,14.75
2023-03-13T08:38:19.204Z,15.32
2023-03-13T08:38:45.875Z,16.63
2023-03-13T08:39:11.732Z,15.30
2023-03-13T08:39:34.559Z,19.75
2023-03-13T08:39:57.367Z,18.30
2023-03-13T08:40:20.065Z,16.27
2023-03-13T08:40:42.806Z,14.80
2023-03-13T08:41:05.686Z,14.55
2023-03-13T08:41:29.423Z,15.55
2023-03-13T08:41:52.194Z,14.93
2023-03-13T08:42:15.044Z,15.80
2023-03-13T08:42:39.170Z,15.25
2023-03-13T08:43:02.026Z,13.75
2023-03-13T08:43:24.726Z,14.20
2023-03-13T08:43:47.632Z,14.82
2023-03-13T08:44:11.611Z,19.30
2023-03-13T08:44:34.492Z,15.98
2023-03-13T08:44:57.209Z,16.13
2023-03-13T08:45:20.002Z,13.60
2023-03-13T08:45:42.828Z,16.70
2023-03-13T08:46:05.979Z,15.65
2023-03-13T08:46:29.850Z,18.20
2023-03-13T08:46:52.661Z,18.42
2023-03-13T08:47:15.435Z,16.23
2023-03-13T08:47:38.145Z,17.50
2023-03-13T08:48:01.170Z,15.95
2023-03-13T08:48:23.925Z,17.23
2023-03-13T08:48:50.422Z,16.38
2023-03-13T08:49:17.797Z,17.33
2023-03-13T08:49:40.658Z,17.13
2023-03-13T08:50:06.049Z,15.93
2023-03-13T08:50:29.342Z,17.80
2023-03-13T08:51:01.691Z,17.95
2023-03-13T08:51:27.917Z,20.52
2023-03-13T08:51:50.647Z,20.15
2023-03-13T08:52:13.442Z,20.45
2023-03-13T08:52:36.158Z,19.88
2023-03-13T08:52:58.877Z,17.35
2023-03-13T08:53:21.609Z,18.67
2023-03-13T08:53:44.384Z,20.63
2023-03-13T08:54:08.247Z,19.73
2023-03-13T08:54:30.924Z,21.40
2023-03-13T08:54:53.664Z,21.08
2023-03-13T08:55:16.451Z,19.58
2023-03-13T08:55:39.081Z,17.25
2023-03-13T08:56:02.031Z,19.70
2023-03-13T08:56:25.970Z,22.42
2023-03-13T08:56:48.780Z,19.77
2023-03-13T08:57:11.436Z,19.25
2023-03-13T08:57:36.376Z,18.35
2023-03-13T08:57:59.176Z,20.75
2023-03-13T08:58:21.876Z,17.23
2023-03-13T08:58:44.638Z,19.40
2023-03-13T08:59:07.389Z,15.85
2023-03-13T08:59:30.325Z,17.80
2023-03-13T08:59:53.059Z,17.88
2023-03-13T09:00:19.734Z,19.38
2023-03-13T09:00:42.442Z,21.65
2023-03-13T09:01:05.909Z,15.45
2023-03-13T09:01:29.961Z,16.73
2023-03-13T09:01:52.712Z,19.88
2023-03-13T09:02:20.115Z,15.93
2023-03-13T09:02:43.106Z,19.73
2023-03-13T09:03:06.043Z,19.17
2023-03-13T09:03:28.874Z,17.23
2023-03-13T09:03:52.650Z,18.15
2023-03-13T09:04:16.826Z,18.52
2023-03-13T09:04:39.901Z,16.35
2023-03-13T09:05:02.613Z,16.42
2023-03-13T09:05:25.340Z,16.45
2023-03-13T09:05:55.987Z,16.48
2023-03-13T09:06:19.479Z,18.60
2023-03-13T09:06:42.279Z,21.23
2023-03-13T09:07:05.075Z,22.13
2023-03-13T09:07:27.876Z,18.48
2023-03-13T09:07:52.817Z,17.63
2023-03-13T09:08:16.652Z,15.70
2023-03-13T09:08:39.992Z,17.05
2023-03-13T09:09:05.958Z,18.10
2023-03-13T09:09:28.719Z,15.98
2023-03-13T09:09:51.471Z,19.58
2023-03-13T09:10:14.913Z,16.80
2023-03-13T09:10:37.606Z,17.02
2023-03-13T09:11:01.115Z,18.02
2023-03-13T09:11:23.787Z,18.48
2023-03-13T09:11:46.569Z,20.13
2023-03-13T09:12:24.608Z,26.55
2023-03-13T09:12:52.641Z,17.75
2023-03-13T09:13:15.383Z,22.17
2023-03-13T09:13:39.607Z,25.45
2023-03-13T09:14:02.332Z,19.80
2023-03-13T09:14:25.062Z,23.63
2023-03-13T09:14:48.729Z,23.52
2023-03-13T09:15:11.952Z,19.13
2023-03-13T09:15:34.960Z,22.38
2023-03-13T09:15:57.754Z,25.10
2023-03-13T09:16:22.652Z,20.42
2023-03-13T09:16:46.519Z,21.98
2023-03-13T09:17:09.261Z,22.50
2023-03-13T09:17:31.983Z,19.85
2023-03-13T09:17:54.882Z,26.23
2023-03-13T09:18:17.773Z,23.88
2023-03-13T09:18:40.596Z,26.60
2023-03-13T09:19:03.538Z,37.42
2023-03-13T09:19:27.734Z,44.88
2023-03-13T09:19:59.755Z,25.65
2023-03-13T09:20:23.716Z,21.95
2023-03-13T09:20:48.608Z,26.38
2023-03-13T09:21:13.630Z,24.65
2023-03-13T09:21:36.370Z,24.83
2023-03-13T09:21:59.202Z,24.90
2023-03-13T09:22:21.932Z,23.45
2023-03-13T09:22:44.588Z,25.77
2023-03-13T09:23:07.352Z,23.33
2023-03-13T09:23:30.080Z,21.98
2023-03-13T09:23:52.868Z,20.73
2023-03-13T09:24:15.875Z,20.30
2023-03-13T09:24:38.615Z,16.33
2023-03-13T09:25:01.307Z,18.52
2023-03-13T09:25:24.061Z,21.30
2023-03-13T09:25:46.785Z,18.42
2023-03-13T09:26:09.690Z,19.55
2023-03-13T09:26:32.984Z,19.85
2023-03-13T09:27:01.246Z,21.85
2023-03-13T09:27:24.335Z,16.50
2023-03-13T09:27:47.126Z,16.13
2023-03-13T09:28:09.847Z,15.40
2023-03-13T09:28:34.905Z,16.80
2023-03-13T09:28:57.683Z,15.18
2023-03-13T09:29:20.490Z,19.73
2023-03-13T09:29:43.205Z,18.00
2023-03-13T09:30:07.575Z,15.30
2023-03-13T09:30:30.317Z,17.35
2023-03-13T09:30:53.360Z,23.70
2023-03-13T09:31:17.101Z,19.27
2023-03-13T09:31:41.457Z,18.63
2023-03-13T09:32:05.016Z,17.90
2023-03-13T09:32:27.746Z,15.73
2023-03-13T09:32:50.496Z,13.80
2023-03-13T09:33:13.164Z,15.13
2023-03-13T09:33:35.846Z,17.23
2023-03-13T09:33:58.568Z,16.27
2023-03-13T09:34:23.528Z,11.70
2023-03-13T09:34:47.884Z,17.63
2023-03-13T09:35:10.582Z,15.93
2023-03-13T09:35:33.417Z,14.57
2023-03-13T09:35:56.259Z,15.55
2023-03-13T09:36:22.124Z,21.90
2023-03-13T09:36:45.511Z,18.70
2023-03-13T09:37:08.959Z,18.60
2023-03-13T09:37:31.799Z,21.88
2023-03-13T09:37:54.775Z,22.75
2023-03-13T09:38:17.600Z,23.40
2023-03-13T09:38:40.485Z,18.38
2023-03-13T09:39:03.211Z,23.42
2023-03-13T09:39:25.941Z,23.55
2023-03-13T09:39:49.298Z,17.98
2023-03-13T09:40:15.213Z,18.85
2023-03-13T09:40:39.235Z,14.10
2023-03-13T09:41:06.464Z,16.08
2023-03-13T09:41:33.450Z,15.43
2023-03-13T09:42:00.637Z,18.13
2023-03-13T09:42:28.196Z,14.25
2023-03-13T09:42:52.468Z,15.40
2023-03-13T09:43:23.930Z,13.70
2023-03-13T09:43:48.149Z,15.50
2023-03-13T09:44:17.133Z,17.00
2023-03-13T09:44:40.729Z,14.02
2023-03-13T09:45:05.615Z,13.70
2023-03-13T09:45:34.031Z,11.15
2023-03-13T09:45:59.230Z,12.68
2023-03-13T09:46:27.734Z,12.80
2023-03-13T09:46:58.874Z,12.70
2023-03-13T09:47:23.564Z,11.60
2023-03-13T09:47:47.459Z,11.50
2023-03-13T09:48:12.851Z,13.18
2023-03-13T09:48:37.764Z,11.50
2023-03-13T09:49:01.290Z,11.07
2023-03-13T09:49:30.202Z,11.18
2023-03-13T09:49:55.964Z,14.70
2023-03-13T09:50:20.185Z,11.80
2023-03-13T09:50:43.970Z,10.57
2023-03-13T09:51:08.979Z,12.63
2023-03-13T09:51:35.306Z,11.48
2023-03-13T09:52:05.928Z,9.27
2023-03-13T09:52:31.252Z,8.63
2023-03-13T09:52:56.484Z,9.82
2023-03-13T09:53:25.843Z,12.45
2023-03-13T09:53:52.186Z,16.60
2023-03-13T09:54:22.843Z,13.23
2023-03-13T09:54:49.364Z,12.40
2023-03-13T09:55:15.721Z,12.82
2023-03-13T09:55:38.375Z,12.60
2023-03-13T09:56:01.138Z,12.65
2023-03-13T09:56:29.451Z,11.65
2023-03-13T09:56:55.137Z,11.65
2023-03-13T09:57:22.745Z,11.80
2023-03-13T09:57:49.344Z,11.73
2023-03-13T09:58:13.757Z,10.45
2023-03-13T09:58:36.618Z,10.60
2023-03-13T09:59:02.803Z,11.70
2023-03-13T09:59:33.111Z,10.88
2023-03-13T09:59:57.891Z,10.40
2023-03-13T10:00:24.622Z,11.32
2023-03-13T10:00:48.808Z,10.90
2023-03-13T10:01:11.487Z,11.55
2023-03-13T10:01:34.326Z,10.75
2023-03-13T10:01:58.560Z,10.30
2023-03-13T10:02:29.899Z,9.85
2023-03-13T10:02:56.796Z,9.73
2023-03-13T10:03:22.769Z,9.32
2023-03-13T10:03:50.131Z,10.80
2023-03-13T10:04:21.813Z,11.57
2023-03-13T10:04:46.236Z,10.80
2023-03-13T10:05:15.415Z,10.27
2023-03-13T10:05:39.600Z,12.07
2023-03-13T10:06:04.679Z,11.45
2023-03-13T10:06:27.503Z,13.13
2023-03-13T10:06:52.242Z,12.68
2023-03-13T10:07:14.960Z,10.65
2023-03-13T10:07:37.763Z,9.88
2023-03-13T10:08:17.615Z,10.25
2023-03-13T10:08:40.341Z,10.48
2023-03-13T10:09:03.026Z,11.35
2023-03-13T10:09:29.786Z,11.05
2023-03-13T10:09:53.813Z,10.25
2023-03-13T10:10:18.428Z,10.77
2023-03-13T10:10:47.523Z,11.27
2023-03-13T10:11:11.714Z,11.48
2023-03-13T10:11:37.637Z,10.95
2023-03-13T10:12:07.090Z,13.23
2023-03-13T10:12:30.856Z,8.63
2023-03-13T10:12:56.346Z,8.77
2023-03-13T10:13:22.641Z,10.38
2023-03-13T10:13:47.930Z,8.97
2023-03-13T10:14:13.803Z,7.60
2023-03-13T10:14:43.696Z,7.88
2023-03-13T10:15:32.867Z,8.68
2023-03-13T10:15:56.694Z,10.02
2023-03-13T10:16:22.505Z,13.25
2023-03-13T10:16:46.713Z,8.60
2023-03-13T10:17:14.739Z,9.40
2023-03-13T10:17:38.236Z,8.20
2023-03-13T10:18:03.374Z,7.97
2023-03-13T10:18:26.834Z,10.32
2023-03-13T10:18:53.120Z,7.28
2023-03-13T10:19:17.525Z,7.50
2023-03-13T10:19:43.572Z,6.53
2023-03-13T10:20:17.599Z,7.25
2023-03-13T10:20:40.660Z,6.90
2023-03-13T10:21:10.700Z,6.82
2023-03-13T10:21:34.437Z,7.65
2023-03-13T10:21:57.375Z,8.15
2023-03-13T10:22:22.411Z,8.48
2023-03-13T10:22:45.921Z,6.45
2023-03-13T10:23:12.482Z,8.57
2023-03-13T10:23:38.616Z,7.07
2023-03-13T10:24:03.203Z,8.23
2023-03-13T10:24:30.726Z,8.30
2023-03-13T10:24:56.479Z,8.65
2023-03-13T10:25:25.711Z,7.63
2023-03-13T10:25:48.390Z,7.28
2023-03-13T10:26:14.870Z,8.15
2023-03-13T10:26:37.610Z,7.10
2023-03-13T10:27:00.273Z,6.03
2023-03-13T10:27:23.045Z,6.20
2023-03-13T10:27:50.717Z,9.13
2023-03-13T10:28:19.697Z,10.13
2023-03-13T10:28:42.470Z,8.43
2023-03-13T10:29:22.960Z,6.35
2023-03-13T10:29:45.654Z,8.27
2023-03-13T10:30:12.810Z,8.05
2023-03-13T10:30:36.592Z,7.85
2023-03-13T10:31:02.855Z,6.72
2023-03-13T10:31:27.410Z,8.27
2023-03-13T10:31:56.157Z,9.48
2023-03-13T10:32:19.459Z,6.43
2023-03-13T10:32:42.435Z,6.80
2023-03-13T10:33:20.170Z,7.55
2023-03-13T10:33:43.064Z,7.45
2023-03-13T10:34:08.707Z,6.20
2023-03-13T10:34:44.785Z,5.93
2023-03-13T10:35:11.226Z,6.57
2023-03-13T10:35:36.356Z,6.22
2023-03-13T10:36:05.093Z,6.35
2023-03-13T10:36:27.925Z,7.72
2023-03-13T10:36:54.823Z,9.23
2023-03-13T10:37:21.286Z,7.25
2023-03-13T10:37:44.136Z,8.63
2023-03-13T10:38:09.452Z,10.07
2023-03-13T10:38:34.245Z,9.27
2023-03-13T10:38:56.970Z,6.22
2023-03-13T10:39:21.264Z,6.75
2023-03-13T10:39:44.035Z,6.65
2023-03-13T10:40:14.427Z,7.38
2023-03-13T10:40:37.570Z,9.00
2023-03-13T10:41:01.510Z,8.95
2023-03-13T10:41:29.141Z,9.52
2023-03-13T10:41:56.138Z,8.07
2023-03-13T10:42:22.480Z,10.35
2023-03-13T10:42:45.949Z,10.85
2023-03-13T10:43:15.671Z,8.00
2023-03-13T10:43:38.408Z,10.77
2023-03-13T10:44:03.752Z,9.68
2023-03-13T10:44:31.370Z,8.10
2023-03-13T10:45:01.125Z,8.70
2023-03-13T10:45:25.315Z,10.35
2023-03-13T10:45:48.324Z,7.68
2023-03-13T10:46:11.052Z,10.70
2023-03-13T10:46:34.899Z,8.18
2023-03-13T10:47:00.727Z,8.32
2023-03-13T10:47:23.507Z,10.52
2023-03-13T10:47:46.255Z,9.23
2023-03-13T10:48:13.492Z,7.43
2023-03-13T10:48:37.294Z,8.18
2023-03-13T10:49:01.933Z,6.78
2023-03-13T10:49:24.789Z,6.70
2023-03-13T10:49:48.864Z,7.72
2023-03-13T10:50:18.274Z,7.00
2023-03-13T10:50:44.978Z,8.93
2023-03-13T10:51:12.775Z,10.55
2023-03-13T10:51:37.774Z,7.97
2023-03-13T10:52:01.764Z,9.02
2023-03-13T10:52:33.374Z,7.38
2023-03-13T10:52:56.527Z,7.28
2023-03-13T10:53:31.989Z,7.80
2023-03-13T10:53:54.775Z,7.13
2023-03-13T10:54:22.120Z,7.97
2023-03-13T10:54:44.837Z,6.82
2023-03-13T10:55:10.688Z,7.75
2023-03-13T10:55:33.365Z,9.13
2023-03-13T10:55:58.143Z,7.53
2023-03-13T10:56:25.975Z,9.80
2023-03-13T10:56:48.853Z,7.97
2023-03-13T10:57:26.411Z,8.88
2023-03-13T10:57:55.830Z,8.77
2023-03-13T10:58:20.720Z,11.50
2023-03-13T10:58:44.809Z,15.27
2023-03-13T10:59:21.457Z,7.50
2023-03-13T10:59:45.346Z,11.15
2023-03-13T11:00:28.000Z,12.32
2023-03-13T11:00:50.742Z,9.20
2023-03-13T11:01:18.477Z,8.68
2023-03-13T11:01:45.494Z,10.30
2023-03-13T11:02:20.963Z,8.80
2023-03-13T11:02:45.123Z,9.40
2023-03-13T11:03:14.481Z,9.98
2023-03-13T11:03:37.360Z,8.85
2023-03-13T11:04:03.179Z,8.05
2023-03-13T11:04:30.291Z,8.70
2023-03-13T11:04:55.849Z,6.70
2023-03-13T11:05:31.873Z,6.68
2023-03-13T11:05:59.147Z,7.35
2023-03-13T11:06:29.821Z,7.32
2023-03-13T11:06:53.152Z,8.68
2023-03-13T11:07:16.976Z,8.02
2023-03-13T11:07:40.646Z,7.75
2023-03-13T11:08:21.848Z,7.93
2023-03-13T11:08:44.677Z,7.80
2023-03-13T11:09:12.746Z,8.85
2023-03-13T11:09:35.446Z,8.65
2023-03-13T11:09:59.556Z,7.63
2023-03-13T11:10:23.374Z,7.72
2023-03-13T11:10:54.921Z,7.25
2023-03-13T11:11:19.566Z,8.50
2023-03-13T11:11:47.528Z,8.43
2023-03-13T11:12:12.134Z,7.43
2023-03-13T11:12:35.365Z,7.65
2023-03-13T11:12:58.496Z,7.05
2023-03-13T11:13:36.512Z,9.00
2023-03-13T11:14:08.914Z,8.60
2023-03-13T11:14:31.711Z,7.97
2023-03-13T11:14:58.200Z,9.18
2023-03-13T11:15:23.079Z,8.52
2023-03-13T11:15:48.444Z,7.63
2023-03-13T11:16:20.541Z,9.77
2023-03-13T11:16:50.580Z,5.78
2023-03-13T11:17:19.779Z,6.53
2023-03-13T11:17:43.187Z,7.88
2023-03-13T11:18:08.033Z,8.68
2023-03-13T11:18:33.061Z,6.38
2023-03-13T11:19:10.242Z,8.25
2023-03-13T11:19:42.673Z,7.07
2023-03-13T11:20:20.166Z,7.25
2023-03-13T11:20:43.630Z,10.32
2023-03-13T11:21:17.728Z,7.97
2023-03-13T11:21:45.462Z,11.43
2023-03-13T11:22:17.303Z,7.10
2023-03-13T11:22:53.436Z,6.35
2023-03-13T11:23:19.855Z,8.95
2023-03-13T11:23:44.090Z,8.20
2023-03-13T11:24:09.150Z,12.15
2023-03-13T11:24:36.512Z,8.73
2023-03-13T11:25:17.789Z,9.00
2023-03-13T11:25:43.709Z,8.48
2023-03-13T11:26:10.560Z,9.68
2023-03-13T11:26:35.317Z,6.63
2023-03-13T11:27:04.632Z,9.68
2023-03-13T11:27:30.977Z,8.80
2023-03-13T11:28:09.937Z,7.65
2023-03-13T11:28:41.996Z,7.78
2023-03-13T11:29:09.449Z,6.63
2023-03-13T11:29:36.538Z,5.13
2023-03-13T11:30:19.647Z,6.72
2023-03-13T11:30:51.901Z,10.27
2023-03-13T11:31:15.610Z,10.30
2023-03-13T11:31:40.221Z,10.07
2023-03-13T11:32:07.682Z,9.63
2023-03-13T11:32:36.691Z,9.00
2023-03-13T11:33:01.114Z,7.10
2023-03-13T11:33:30.460Z,7.22
2023-03-13T11:33:58.884Z,6.25
2023-03-13T11:34:28.130Z,5.97
2023-03-13T11:34:52.501Z,7.30
2023-03-13T11:35:33.847Z,5.93
2023-03-13T11:36:01.445Z,5.90
2023-03-13T11:36:29.196Z,5.38
2023-03-13T11:36:53.656Z,5.22
2023-03-13T11:37:16.671Z,5.72
2023-03-13T11:37:39.368Z,5.88
2023-03-13T11:38:02.352Z,7.50
2023-03-13T11:38:27.817Z,6.45
2023-03-13T11:38:53.832Z,7.88
2023-03-13T11:39:37.890Z,6.85
2023-03-13T11:40:07.026Z,4.35
2023-03-13T11:40:31.982Z,6.53
2023-03-13T11:40:59.897Z,6.65
2023-03-13T11:41:31.081Z,8.40
2023-03-13T11:42:00.122Z,9.32
2023-03-13T11:42:47.225Z,6.45
2023-03-13T11:43:28.382Z,7.43
2023-03-13T11:44:21.470Z,7.47
2023-03-13T11:44:48.420Z,5.18
2023-03-13T11:45:17.091Z,6.35
2023-03-13T11:45:57.678Z,5.40
2023-03-13T11:46:26.348Z,5.28
2023-03-13T11:46:54.635Z,6.22
2023-03-13T11:47:25.734Z,4.65
2023-03-13T11:47:53.725Z,8.77
2023-03-13T11:48:19.707Z,4.57
2023-03-13T11:49:03.750Z,4.70
2023-03-13T11:49:53.372Z,5.82
2023-03-13T11:50:23.660Z,5.05
2023-03-13T11:50:48.368Z,7.25
2023-03-13T11:51:14.444Z,4.57
2023-03-13T11:51:43.450Z,4.90
2023-03-13T11:52:13.171Z,5.35
2023-03-13T11:52:43.736Z,4.65
2023-03-13T11:53:21.625Z,6.40
2023-03-13T11:53:57.775Z,4.82
2023-03-13T11:54:36.964Z,5.25
2023-03-13T11:55:18.095Z,6.05
2023-03-13T11:55:58.282Z,8.25
2023-03-13T11:56:22.725Z,7.22
2023-03-13T11:56:47.580Z,4.95
2023-03-13T11:57:13.710Z,5.90
2023-03-13T11:57:40.140Z,6.95
2023-03-13T11:58:15.415Z,6.43
2023-03-13T11:58:53.979Z,5.18
2023-03-13T11:59:26.726Z,7.18
2023-03-13T11:59:52.311Z,6.15
2023-03-13T12:00:23.112Z,6.03
2023-03-13T12:00:48.370Z,5.55
2023-03-13T12:01:12.459Z,4.03
2023-03-13T12:01:38.288Z,4.38
2023-03-13T12:02:03.238Z,5.75
2023-03-13T12:02:27.655Z,4.13
2023-03-13T12:02:52.151Z,4.25
2023-03-13T12:03:16.557Z,5.05
2023-03-13T12:03:40.986Z,4.55
2023-03-13T12:04:05.408Z,6.85
2023-03-13T12:04:30.088Z,6.22
2023-03-13T12:04:54.909Z,4.97
2023-03-13T12:05:19.416Z,5.00
2023-03-13T12:05:45.814Z,6.72
2023-03-13T12:06:27.381Z,6.05
2023-03-13T12:06:54.826Z,5.40
2023-03-13T12:07:21.309Z,5.40
2023-03-13T12:07:47.388Z,5.20
2023-03-13T12:08:12.680Z,5.30
2023-03-13T12:08:36.812Z,4.93
2023-03-13T12:09:03.534Z,5.25
2023-03-13T12:09:28.407Z,6.40
2023-03-13T12:09:53.906Z,7.43
2023-03-13T12:10:18.605Z,5.03
2023-03-13T12:10:43.520Z,6.22
2023-03-13T12:11:12.346Z,5.60
2023-03-13T12:11:43.888Z,8.95
2023-03-13T12:12:12.331Z,6.35
2023-03-13T12:12:38.835Z,5.95
2023-03-13T12:13:04.345Z,8.48
2023-03-13T12:13:29.137Z,7.18
2023-03-13T12:13:54.568Z,8.68
2023-03-13T12:14:18.877Z,8.77
2023-03-13T12:14:43.830Z,8.75
2023-03-13T12:15:23.570Z,9.10
2023-03-13T12:15:47.422Z,7.45
2023-03-13T12:16:12.218Z,10.50
2023-03-13T12:16:40.523Z,8.82
2023-03-13T12:17:04.164Z,7.93
2023-03-13T12:17:31.920Z,6.40
2023-03-13T12:17:56.835Z,7.63
2023-03-13T12:18:21.148Z,7.18
2023-03-13T12:18:44.436Z,7.28
2023-03-13T12:19:10.200Z,6.47
2023-03-13T12:19:36.645Z,8.85
2023-03-13T12:20:01.605Z,7.03
2023-03-13T12:20:25.688Z,7.10
2023-03-13T12:20:53.608Z,6.35
2023-03-13T12:21:19.730Z,10.48
2023-03-13T12:21:45.463Z,6.07
2023-03-13T12:22:14.575Z,5.88
2023-03-13T12:22:39.564Z,5.60
2023-03-13T12:23:17.319Z,7.75
2023-03-13T12:23:44.306Z,5.93
2023-03-13T12:24:10.401Z,8.27
2023-03-13T12:24:34.230Z,8.30
2023-03-13T12:25:00.834Z,7.97
2023-03-13T12:25:25.135Z,6.40
2023-03-13T12:25:52.247Z,6.00
2023-03-13T12:26:15.785Z,6.53
2023-03-13T12:26:41.398Z,5.97
2023-03-13T12:27:09.419Z,7.13
2023-03-13T12:27:33.655Z,6.25
2023-03-13T12:27:58.603Z,7.50
2023-03-13T12:28:29.340Z,5.28
2023-03-13T12:28:59.389Z,5.07
2023-03-13T12:29:28.358Z,6.15
2023-03-13T12:29:55.556Z,5.13
2023-03-13T12:30:26.357Z,4.95
2023-03-13T12:30:50.712Z,5.57
2023-03-13T12:31:18.463Z,4.68
2023-03-13T12:31:42.687Z,4.75
2023-03-13T12:32:08.652Z,5.18
2023-03-13T12:32:35.021Z,7.35
2023-03-13T12:33:02.332Z,5.97
2023-03-13T12:33:26.623Z,6.97
2023-03-13T12:33:53.531Z,6.60
2023-03-13T12:34:18.899Z,7.30
2023-03-13T12:34:47.982Z,9.00
2023-03-13T12:35:18.219Z,7.35
2023-03-13T12:35:41.286Z,7.28
2023-03-13T12:36:08.721Z,8.13
2023-03-13T12:36:33.934Z,6.45
2023-03-13T12:37:01.294Z,6.07
2023-03-13T12:37:29.582Z,5.47
2023-03-13T12:37:54.644Z,4.80
2023-03-13T12:38:20.161Z,4.95
2023-03-13T12:38:46.890Z,6.10
2023-03-13T12:39:21.087Z,8.00
2023-03-13T12:39:50.252Z,4.60
2023-03-13T12:40:16.566Z,5.57
2023-03-13T12:40:42.413Z,5.75
2023-03-13T12:41:18.707Z,5.60
2023-03-13T12:41:43.321Z,4.95
2023-03-13T12:42:16.447Z,5.38
2023-03-13T12:42:45.775Z,5.25
2023-03-13T12:43:11.462Z,6.43
2023-03-13T12:43:34.591Z,5.32
2023-03-13T12:44:08.213Z,6.38
2023-03-13T12:44:31.819Z,4.68
2023-03-13T12:44:54.464Z,4.93
2023-03-13T12:45:18.947Z,5.10
2023-03-13T12:45:54.825Z,5.95
2023-03-13T12:46:43.005Z,5.55
2023-03-13T12:47:09.099Z,5.30
2023-03-13T12:47:32.809Z,7.43
2023-03-13T12:48:13.791Z,5.65
2023-03-13T12:48:56.242Z,4.30
2023-03-13T12:50:04.501Z,7.95
2023-03-13T12:50:32.262Z,5.32
2023-03-13T12:51:07.836Z,5.05
2023-03-13T12:51:40.645Z,4.63
2023-03-13T12:52:22.101Z,3.95
2023-03-13T12:53:02.401Z,4.80
2023-03-13T12:53:53.715Z,5.03
2023-03-13T12:54:32.872Z,4.43
2023-03-13T12:55:09.053Z,5.45
2023-03-13T12:55:58.844Z,4.22
2023-03-13T12:56:44.648Z,5.80
2023-03-13T12:57:17.141Z,5.10
2023-03-13T12:58:10.755Z,5.72
2023-03-13T12:58:45.347Z,5.70
2023-03-13T12:59:08.656Z,5.30
2023-03-13T12:59:32.826Z,4.60
2023-03-13T12:59:56.396Z,5.50
2023-03-13T13:00:20.550Z,4.20
2023-03-13T13:00:44.983Z,4.95
2023-03-13T13:01:07.907Z,3.90
2023-03-13T13:01:33.450Z,5.07
2023-03-13T13:01:56.869Z,4.78
2023-03-13T13:02:21.042Z,4.15
2023-03-13T13:02:43.786Z,4.50
2023-03-13T13:03:11.051Z,4.22
2023-03-13T13:03:36.575Z,7.05
2023-03-13T13:04:00.547Z,3.97
2023-03-13T13:04:43.481Z,4.50
2023-03-13T13:05:24.910Z,4.50
2023-03-13T13:06:07.669Z,4.43
2023-03-13T13:06:57.777Z,4.07
2023-03-13T13:07:40.649Z,4.20
2023-03-13T13:08:05.234Z,7.43
2023-03-13T13:08:27.887Z,9.73
2023-03-13T13:09:08.408Z,6.75
2023-03-13T13:09:31.815Z,5.20
2023-03-13T13:10:03.375Z,4.38
2023-03-13T13:10:26.715Z,4.13
2023-03-13T13:10:49.503Z,4.25
2023-03-13T13:11:47.391Z,4.40
2023-03-13T13:12:20.059Z,3.90
2023-03-13T13:12:42.864Z,4.00
2023-03-13T13:13:20.067Z,3.35
2023-03-13T13:13:42.793Z,4.18
2023-03-13T13:14:27.258Z,3.33
2023-03-13T13:15:04.273Z,4.13
2023-03-13T13:15:27.270Z,3.85
2023-03-13T13:15:59.958Z,3.60
2023-03-13T13:16:22.943Z,4.40
2023-03-13T13:16:46.698Z,4.30
2023-03-13T13:17:16.845Z,3.47
2023-03-13T13:18:01.260Z,3.63
2023-03-13T13:18:27.376Z,3.45
2023-03-13T13:18:50.319Z,3.22
2023-03-13T13:19:46.428Z,3.00
2023-03-13T13:20:44.438Z,4.28
2023-03-13T13:21:21.965Z,7.13
2023-03-13T13:21:44.802Z,2.95
2023-03-13T13:22:40.789Z,4.20
2023-03-13T13:23:34.020Z,5.05
2023-03-13T13:24:00.117Z,3.95
2023-03-13T13:24:41.766Z,3.58
2023-03-13T13:25:27.682Z,6.35
2023-03-13T13:25:50.568Z,3.65
2023-03-13T13:26:49.540Z,4.95
2023-03-13T13:27:44.953Z,3.58
2023-03-13T13:28:35.146Z,4.30
2023-03-13T13:28:58.577Z,4.45
2023-03-13T13:29:57.007Z,5.03
2023-03-13T13:30:38.176Z,4.85
2023-03-13T13:31:01.028Z,5.70
2023-03-13T13:31:57.196Z,6.07
2023-03-13T13:32:20.037Z,4.68
2023-03-13T13:32:45.110Z,4.03
2023-03-13T13:33:38.540Z,4.00
2023-03-13T13:34:01.184Z,6.57
2023-03-13T13:34:54.770Z,6.28
2023-03-13T13:35:33.305Z,5.88
2023-03-13T13:36:27.605Z,3.60
2023-03-13T13:36:50.315Z,4.38
2023-03-13T13:37:26.298Z,6.28
2023-03-13T13:37:49.658Z,5.47
2023-03-13T13:38:39.874Z,5.10
2023-03-13T13:39:03.558Z,5.45
2023-03-13T13:39:36.334Z,5.10
2023-03-13T13:40:20.796Z,5.68
2023-03-13T13:40:57.914Z,5.00
2023-03-13T13:41:34.776Z,7.63
2023-03-13T13:41:57.545Z,7.20
2023-03-13T13:42:48.638Z,3.97
2023-03-13T13:43:21.450Z,3.88
2023-03-13T13:43:44.485Z,4.78
2023-03-13T13:44:27.317Z,4.97
2023-03-13T13:44:59.046Z,12.40
2023-03-13T13:45:29.769Z,7.35
2023-03-13T13:45:59.779Z,6.22
2023-03-13T13:46:24.953Z,5.53
2023-03-13T13:46:47.821Z,4.30
2023-03-13T13:47:22.317Z,3.63
2023-03-13T13:47:46.505Z,5.45
2023-03-13T13:48:28.075Z,5.13
2023-03-13T13:49:12.345Z,5.32
2023-03-13T13:49:56.050Z,4.63
2023-03-13T13:50:20.053Z,5.32
2023-03-13T13:51:15.789Z,7.57
2023-03-13T13:51:38.919Z,5.75
2023-03-13T13:52:35.840Z,6.03
2023-03-13T13:53:24.796Z,6.15
2023-03-13T13:53:50.891Z,8.30
2023-03-13T13:54:32.019Z,5.18
2023-03-13T13:54:56.701Z,4.43
2023-03-13T13:55:33.788Z,5.10
2023-03-13T13:55:58.921Z,7.63
2023-03-13T13:56:39.493Z,6.20
2023-03-13T13:57:03.366Z,5.93
2023-03-13T13:57:26.527Z,6.80
2023-03-13T13:57:49.930Z,7.55
2023-03-13T13:58:15.211Z,6.55
2023-03-13T13:58:39.843Z,5.93
2023-03-13T13:59:05.225Z,5.10
2023-03-13T13:59:36.910Z,4.70
2023-03-13T14:00:05.790Z,6.53
2023-03-13T14:00:29.287Z,7.07
2023-03-13T14:00:54.342Z,5.57
2023-03-13T14:01:17.081Z,6.55
2023-03-13T14:01:40.716Z,4.32
2023-03-13T14:02:24.397Z,4.95
2023-03-13T14:02:50.428Z,5.07
2023-03-13T14:03:19.565Z,5.72
2023-03-13T14:03:42.383Z,5.70